createdAt,value
2023-01-27T00:00:29.339Z,101699.34
2023-01-27T00:02:56.089Z,101695.44
2023-01-27T00:05:22.789Z,101696.19
2023-01-27T00:07:49.815Z,101699.34
2023-01-27T00:10:20.413Z,101686.59
2023-01-27T00:13:06.509Z,101689.44
2023-01-27T00:15:34.331Z,101685.53
2023-01-27T00:18:01.793Z,101686.56
2023-01-27T00:20:47.235Z,101675.94
2023-01-27T00:23:34.492Z,101674.47
2023-01-27T00:26:06.607Z,101680.53
2023-01-27T00:28:37.144Z,101681.03
2023-01-27T00:31:04.588Z,101688.16
2023-01-27T00:33:31.682Z,101688.97
2023-01-27T00:35:58.813Z,101685.31
2023-01-27T00:38:27.496Z,101680.25
2023-01-27T00:41:12.750Z,101681.94
2023-01-27T00:43:39.372Z,101689.41
2023-01-27T00:46:06.060Z,101691.66
2023-01-27T00:48:32.784Z,101687.41
2023-01-27T00:50:59.500Z,101683.94
2023-01-27T00:53:26.512Z,101677.75
2023-01-27T00:55:53.109Z,101676.59
2023-01-27T00:58:20.230Z,101689.81
2023-01-27T01:00:46.889Z,101684.38
2023-01-27T01:03:13.525Z,101682.94
2023-01-27T01:05:40.164Z,101686.97
2023-01-27T01:08:06.886Z,101691.50
2023-01-27T01:10:33.440Z,101689.72
2023-01-27T01:12:59.991Z,101698.69
2023-01-27T01:15:26.749Z,101691.19
2023-01-27T01:17:53.375Z,101694.44
2023-01-27T01:20:21.432Z,101696.31
2023-01-27T01:22:48.116Z,101686.66
2023-01-27T01:25:14.810Z,101694.22
2023-01-27T01:27:44.743Z,101700.47
2023-01-27T01:30:12.571Z,101705.88
2023-01-27T01:32:39.373Z,101708.38
2023-01-27T01:35:06.363Z,101699.81
2023-01-27T01:37:32.947Z,101701.09
2023-01-27T01:39:59.562Z,101699.94
2023-01-27T01:42:26.304Z,101701.94
2023-01-27T01:45:31.631Z,101700.97
2023-01-27T01:48:00.156Z,101696.03
2023-01-27T01:50:27.503Z,101698.47
2023-01-27T01:52:54.563Z,101695.91
2023-01-27T01:55:21.680Z,101695.69
2023-01-27T01:57:48.823Z,101695.09
2023-01-27T02:00:16.115Z,101694.88
2023-01-27T02:02:46.802Z,101702.34
2023-01-27T02:05:24.445Z,101705.09
2023-01-27T02:07:57.891Z,101700.03
2023-01-27T02:10:25.169Z,101708.47
2023-01-27T02:12:51.858Z,101711.97
2023-01-27T02:15:18.959Z,101712.03
2023-01-27T02:17:45.669Z,101711.06
2023-01-27T02:20:31.861Z,101706.88
2023-01-27T02:23:20.740Z,101709.88
2023-01-27T02:25:59.128Z,101710.03
2023-01-27T02:28:30.667Z,101710.53
2023-01-27T02:30:57.692Z,101704.00
2023-01-27T02:33:24.921Z,101710.06
2023-01-27T02:36:18.218Z,101711.69
2023-01-27T02:38:53.373Z,101714.63
2023-01-27T02:41:31.742Z,101717.38
2023-01-27T02:44:00.084Z,101712.81
2023-01-27T02:46:27.020Z,101715.00
2023-01-27T02:48:54.052Z,101715.38
2023-01-27T02:51:20.692Z,101716.91
2023-01-27T02:53:47.734Z,101718.22
2023-01-27T02:56:14.388Z,101713.09
2023-01-27T02:58:42.140Z,101709.84
2023-01-27T03:01:13.514Z,101720.72
2023-01-27T03:03:44.228Z,101728.00
2023-01-27T03:06:11.289Z,101728.63
2023-01-27T03:08:38.189Z,101737.34
2023-01-27T03:11:05.921Z,101738.94
2023-01-27T03:13:32.752Z,101737.34
2023-01-27T03:16:19.249Z,101731.72
2023-01-27T03:18:47.389Z,101737.63
2023-01-27T03:21:14.478Z,101745.63
2023-01-27T03:23:41.532Z,101742.13
2023-01-27T03:26:09.740Z,101744.28
2023-01-27T03:28:39.071Z,101740.53
2023-01-27T03:31:19.449Z,101747.97
2023-01-27T03:33:53.745Z,101746.28
2023-01-27T03:36:52.043Z,101746.69
2023-01-27T03:39:37.103Z,101742.03
2023-01-27T03:42:22.379Z,101729.78
2023-01-27T03:45:09.649Z,101739.72
2023-01-27T03:47:36.359Z,101739.78
2023-01-27T03:50:02.950Z,101737.13
2023-01-27T03:52:29.692Z,101744.06
2023-01-27T03:54:56.299Z,101744.88
2023-01-27T03:57:22.884Z,101746.00
2023-01-27T03:59:49.489Z,101758.19
2023-01-27T04:02:34.524Z,101766.22
2023-01-27T04:05:19.795Z,101755.53
2023-01-27T04:07:46.421Z,101758.22
2023-01-27T04:10:13.038Z,101767.00
2023-01-27T04:12:39.620Z,101763.13
2023-01-27T04:15:06.986Z,101768.31
2023-01-27T04:17:38.799Z,101759.97
2023-01-27T04:20:06.137Z,101759.88
2023-01-27T04:22:32.762Z,101765.16
2023-01-27T04:24:59.452Z,101758.72
2023-01-27T04:27:27.369Z,101770.81
2023-01-27T04:29:53.990Z,101777.06
2023-01-27T04:32:20.717Z,101782.34
2023-01-27T04:34:47.265Z,101776.00
2023-01-27T04:37:13.918Z,101777.19
2023-01-27T04:39:41.955Z,101775.28
2023-01-27T04:42:08.621Z,101780.06
2023-01-27T04:44:35.231Z,101778.53
2023-01-27T04:47:01.865Z,101786.69
2023-01-27T04:49:28.557Z,101787.41
2023-01-27T04:51:55.606Z,101797.72
2023-01-27T04:54:22.354Z,101790.88
2023-01-27T04:57:00.345Z,101795.72
2023-01-27T04:59:27.190Z,101792.66
2023-01-27T05:01:53.904Z,101796.75
2023-01-27T05:04:20.546Z,101795.94
2023-01-27T05:06:47.124Z,101794.47
2023-01-27T05:09:13.856Z,101790.28
2023-01-27T05:11:40.419Z,101793.28
2023-01-27T05:14:06.956Z,101803.34
2023-01-27T05:16:33.594Z,101798.56
2023-01-27T05:19:00.298Z,101801.72
2023-01-27T05:21:28.421Z,101796.88
2023-01-27T05:23:55.143Z,101800.28
2023-01-27T05:26:26.715Z,101795.06
2023-01-27T05:28:54.145Z,101803.78
2023-01-27T05:31:26.836Z,101801.22
2023-01-27T05:33:54.814Z,101794.53
2023-01-27T05:36:22.862Z,101794.53
2023-01-27T05:38:49.865Z,101799.47
2023-01-27T05:41:17.710Z,101797.28
2023-01-27T05:43:45.721Z,101784.91
2023-01-27T05:46:18.034Z,101792.84
2023-01-27T05:48:56.377Z,101803.78
2023-01-27T05:51:24.925Z,101809.22
2023-01-27T05:53:52.274Z,101817.69
2023-01-27T05:56:19.668Z,101813.41
2023-01-27T05:58:46.460Z,101818.84
2023-01-27T06:01:21.052Z,101818.66
2023-01-27T06:03:48.442Z,101817.97
2023-01-27T06:06:16.885Z,101828.69
2023-01-27T06:08:43.647Z,101826.19
2023-01-27T06:11:10.276Z,101776.75
2023-01-27T06:13:38.734Z,101826.66
2023-01-27T06:16:11.140Z,101825.69
2023-01-27T06:18:38.314Z,101806.44
2023-01-27T06:21:07.112Z,101796.22
2023-01-27T06:23:34.189Z,101799.09
2023-01-27T06:26:03.499Z,101813.53
2023-01-27T06:28:30.611Z,101809.44
2023-01-27T06:31:05.108Z,101825.31
2023-01-27T06:33:32.019Z,101823.16
2023-01-27T06:36:07.456Z,101835.16
2023-01-27T06:38:34.883Z,101791.03
2023-01-27T06:41:01.581Z,101821.06
2023-01-27T06:43:28.541Z,101817.44
2023-01-27T06:45:57.456Z,101835.25
2023-01-27T06:48:24.866Z,101845.72
2023-01-27T06:50:53.113Z,101848.75
2023-01-27T06:53:19.857Z,101853.44
2023-01-27T06:55:46.413Z,101857.28
2023-01-27T06:58:14.801Z,101859.97
2023-01-27T07:00:42.365Z,101866.78
2023-01-27T07:05:41.085Z,101883.59
2023-01-27T07:08:07.798Z,101883.06
2023-01-27T07:10:34.594Z,101874.69
2023-01-27T07:13:05.999Z,101891.53
2023-01-27T07:15:32.664Z,101883.06
2023-01-27T07:18:00.470Z,101873.38
2023-01-27T07:20:28.758Z,101874.59
2023-01-27T07:22:59.710Z,101876.97
2023-01-27T07:25:27.457Z,101875.16
2023-01-27T07:27:54.074Z,101883.00
2023-01-27T07:30:20.715Z,101861.81
2023-01-27T07:32:47.399Z,101882.34
2023-01-27T07:35:14.005Z,101894.06
2023-01-27T07:37:41.488Z,101873.88
2023-01-27T07:40:10.558Z,101866.16
2023-01-27T07:42:37.116Z,101874.31
2023-01-27T07:45:04.266Z,101884.78
2023-01-27T07:47:30.827Z,101893.44
2023-01-27T07:49:57.598Z,101869.63
2023-01-27T07:52:24.140Z,101897.69
2023-01-27T07:54:50.710Z,101895.53
2023-01-27T07:57:17.516Z,101907.19
2023-01-27T07:59:44.192Z,101913.84
2023-01-27T08:02:11.343Z,101914.50
2023-01-27T08:04:52.126Z,101924.66
2023-01-27T08:07:19.972Z,101922.72
2023-01-27T08:09:46.537Z,101927.59
2023-01-27T08:12:13.200Z,101936.84
2023-01-27T08:14:39.784Z,101938.63
2023-01-27T08:17:06.452Z,101936.75
2023-01-27T08:19:33.124Z,101942.03
2023-01-27T08:21:59.682Z,101943.19
2023-01-27T08:24:26.443Z,101953.75
2023-01-27T08:26:53.092Z,101940.22
2023-01-27T08:29:19.758Z,101947.72
2023-01-27T08:31:46.492Z,101953.56
2023-01-27T08:34:13.442Z,101865.25
2023-01-27T08:36:43.601Z,101929.03
2023-01-27T08:39:11.133Z,101964.88
2023-01-27T08:41:37.916Z,101955.13
2023-01-27T08:44:04.787Z,101972.91
2023-01-27T08:46:34.192Z,101979.88
2023-01-27T08:49:00.944Z,101993.63
2023-01-27T08:51:27.743Z,102002.19
2023-01-27T08:53:54.358Z,101967.19
2023-01-27T08:56:21.469Z,102044.50
2023-01-27T08:58:48.544Z,102035.63
2023-01-27T09:01:15.863Z,102040.41
2023-01-27T09:03:42.724Z,102034.88
2023-01-27T09:06:10.819Z,102036.66
2023-01-27T09:08:37.739Z,102034.97
2023-01-27T09:11:16.689Z,102037.53
2023-01-27T09:13:43.963Z,102042.72
2023-01-27T09:16:10.714Z,102038.25
2023-01-27T09:18:37.655Z,102078.69
2023-01-27T09:21:05.723Z,102103.34
2023-01-27T09:23:33.581Z,102114.88
2023-01-27T09:26:00.466Z,102108.84
2023-01-27T09:28:27.365Z,102107.75
2023-01-27T09:30:57.892Z,102112.34
2023-01-27T09:33:25.975Z,102122.59
2023-01-27T09:36:08.288Z,102119.41
2023-01-27T09:38:37.645Z,102127.88
2023-01-27T09:41:23.133Z,102079.41
2023-01-27T09:43:55.457Z,102098.59
2023-01-27T09:46:36.976Z,102106.09
2023-01-27T09:49:17.871Z,102106.94
2023-01-27T09:51:59.381Z,102106.63
2023-01-27T09:54:28.937Z,102105.25
2023-01-27T09:57:23.381Z,102099.94
2023-01-27T10:00:07.718Z,102104.59
2023-01-27T10:02:37.336Z,102106.63
2023-01-27T10:05:09.755Z,102100.50
2023-01-27T10:08:16.598Z,102108.66
2023-01-27T10:10:49.626Z,102104.00
2023-01-27T10:13:28.697Z,102106.84
2023-01-27T10:15:56.748Z,102099.75
2023-01-27T10:18:48.192Z,102112.47
2023-01-27T10:21:26.966Z,102110.75
2023-01-27T10:24:12.031Z,102113.81
2023-01-27T10:26:45.856Z,102117.22
2023-01-27T10:29:25.791Z,102123.13
2023-01-27T10:32:08.020Z,102120.19
2023-01-27T10:34:36.721Z,102127.06
2023-01-27T10:37:06.649Z,102128.13
2023-01-27T10:39:51.616Z,102137.22
2023-01-27T10:42:18.172Z,102138.56
2023-01-27T10:45:00.168Z,102138.56
2023-01-27T10:47:54.053Z,102137.84
2023-01-27T10:50:30.584Z,102130.63
2023-01-27T10:53:12.780Z,102129.06
2023-01-27T10:56:00.653Z,102129.38
2023-01-27T10:58:36.119Z,102105.88
2023-01-27T11:01:23.718Z,102114.88
2023-01-27T11:03:58.338Z,102087.91
2023-01-27T11:06:29.095Z,102117.53
2023-01-27T11:09:10.745Z,102075.09
2023-01-27T11:11:46.498Z,102115.72
2023-01-27T11:14:42.264Z,102125.88
2023-01-27T11:17:27.713Z,102137.53
2023-01-27T11:20:03.921Z,102141.44
2023-01-27T11:22:38.243Z,102149.38
2023-01-27T11:25:13.658Z,102148.44
2023-01-27T11:28:03.368Z,102160.19
2023-01-27T11:30:39.155Z,102154.78
2023-01-27T11:33:11.839Z,102159.34
2023-01-27T11:35:40.913Z,102171.84
2023-01-27T11:38:17.456Z,102169.41
2023-01-27T11:40:45.457Z,102169.94
2023-01-27T11:43:16.462Z,102174.81
2023-01-27T11:45:44.825Z,102180.41
2023-01-27T11:48:14.429Z,102173.53
2023-01-27T11:50:42.389Z,102186.38
2023-01-27T11:53:27.515Z,102174.81
2023-01-27T11:56:03.073Z,102183.28
2023-01-27T11:58:43.586Z,102185.41
2023-01-27T12:01:15.801Z,102184.34
2023-01-27T12:04:00.837Z,102186.97
2023-01-27T12:06:38.676Z,102192.78
2023-01-27T12:09:05.582Z,102191.00
2023-01-27T12:11:32.389Z,102179.69
2023-01-27T12:14:01.673Z,102185.94
2023-01-27T12:16:44.892Z,102184.94
2023-01-27T12:19:24.983Z,102181.91
2023-01-27T12:21:56.215Z,102177.66
2023-01-27T12:24:33.076Z,102175.63
2023-01-27T12:27:02.951Z,102174.16
2023-01-27T12:29:41.777Z,102178.59
2023-01-27T12:32:22.484Z,102167.28
2023-01-27T12:34:52.405Z,102168.22
2023-01-27T12:37:23.327Z,102152.03
2023-01-27T12:39:56.958Z,102158.19
2023-01-27T12:42:47.191Z,102152.69
2023-01-27T12:45:26.895Z,102138.59
2023-01-27T12:48:01.944Z,102146.09
2023-01-27T12:50:31.325Z,102145.91
2023-01-27T12:53:05.944Z,102144.63
2023-01-27T12:55:36.401Z,102143.16
2023-01-27T12:58:03.558Z,102147.47
2023-01-27T13:00:31.026Z,102143.78
2023-01-27T13:03:05.869Z,102145.56
2023-01-27T13:05:42.077Z,102135.84
2023-01-27T13:08:14.653Z,102143.34
2023-01-27T13:10:52.311Z,102140.72
2023-01-27T13:13:21.792Z,102142.63
2023-01-27T13:15:54.022Z,102140.91
2023-01-27T13:18:23.966Z,102137.84
2023-01-27T13:20:54.934Z,102133.94
2023-01-27T13:23:35.007Z,102142.31
2023-01-27T13:26:04.626Z,102137.56
2023-01-27T13:28:52.679Z,102131.53
2023-01-27T13:31:32.610Z,102134.28
2023-01-27T13:33:59.295Z,102132.78
2023-01-27T13:36:38.012Z,102134.38
2023-01-27T13:39:04.665Z,102125.78
2023-01-27T13:41:42.832Z,102125.47
2023-01-27T13:44:27.947Z,102123.25
2023-01-27T13:46:57.605Z,102128.84
2023-01-27T13:49:38.152Z,102121.13
2023-01-27T13:52:08.232Z,102124.63
2023-01-27T13:54:34.955Z,102118.50
2023-01-27T13:57:24.101Z,102116.25
2023-01-27T14:00:04.978Z,102133.81
2023-01-27T14:03:05.051Z,102124.31
2023-01-27T14:05:38.377Z,102129.47
2023-01-27T14:08:19.819Z,102121.00
2023-01-27T14:11:02.668Z,102125.78
2023-01-27T14:13:44.682Z,102121.97
2023-01-27T14:16:29.370Z,102126.09
2023-01-27T14:19:26.401Z,102126.09
2023-01-27T14:22:27.620Z,102118.69
2023-01-27T14:25:03.485Z,102122.91
2023-01-27T14:27:35.554Z,102124.09
2023-01-27T14:30:05.405Z,102118.81
2023-01-27T14:32:53.500Z,102119.53
2023-01-27T14:35:39.193Z,102118.28
2023-01-27T14:38:14.749Z,102114.25
2023-01-27T14:41:00.948Z,102117.63
2023-01-27T14:43:30.725Z,102117.09
2023-01-27T14:46:13.025Z,102116.16
2023-01-27T14:48:52.428Z,102119.75
2023-01-27T14:51:40.459Z,102106.06
2023-01-27T14:54:59.845Z,102114.88
2023-01-27T14:57:53.113Z,102117.50
2023-01-27T15:00:19.692Z,102108.22
2023-01-27T15:03:05.107Z,102101.00
2023-01-27T15:06:02.819Z,102103.22
2023-01-27T15:08:49.461Z,102104.09
2023-01-27T15:11:36.076Z,102098.69
2023-01-27T15:14:21.136Z,102097.69
2023-01-27T15:17:35.779Z,102086.38
2023-01-27T15:20:26.461Z,102087.25
2023-01-27T15:23:05.514Z,102080.34
2023-01-27T15:25:42.121Z,102082.56
2023-01-27T15:28:13.629Z,102076.13
2023-01-27T15:30:41.572Z,102071.88
2023-01-27T15:33:51.501Z,102070.41
2023-01-27T15:36:31.645Z,102073.25
2023-01-27T15:39:10.204Z,102065.44
2023-01-27T15:41:38.364Z,102070.31
2023-01-27T15:44:24.257Z,102069.97
2023-01-27T15:46:52.963Z,102070.72
2023-01-27T15:49:21.295Z,102073.38
2023-01-27T15:51:50.922Z,102062.25
2023-01-27T15:54:31.668Z,102053.47
2023-01-27T15:57:00.527Z,102049.34
2023-01-27T15:59:30.689Z,102046.91
2023-01-27T16:02:01.811Z,102044.88
2023-01-27T16:04:32.201Z,102040.31
2023-01-27T16:07:04.480Z,102036.81
2023-01-27T16:09:42.393Z,102039.78
2023-01-27T16:12:26.114Z,102033.66
2023-01-27T16:15:02.056Z,102029.31
2023-01-27T16:17:32.868Z,102042.56
2023-01-27T16:20:15.528Z,102038.53
2023-01-27T16:22:44.436Z,102030.28
2023-01-27T16:25:19.422Z,102018.56
2023-01-27T16:28:07.275Z,102014.84
2023-01-27T16:30:47.726Z,102009.38
2023-01-27T16:33:25.090Z,102006.81
2023-01-27T16:35:54.801Z,102003.63
2023-01-27T16:38:27.682Z,102009.41
2023-01-27T16:41:01.508Z,102002.69
2023-01-27T16:43:33.581Z,101991.56
2023-01-27T16:46:01.607Z,101993.81
2023-01-27T16:48:41.841Z,101999.81
2023-01-27T16:51:15.110Z,101995.56
2023-01-27T16:53:45.647Z,101990.09
2023-01-27T16:56:32.850Z,101985.88
2023-01-27T16:59:12.856Z,101974.56
2023-01-27T17:01:41.875Z,101965.69
2023-01-27T17:04:19.993Z,101965.38
2023-01-27T17:06:51.449Z,101963.97
2023-01-27T17:09:26.834Z,101952.66
2023-01-27T17:11:55.767Z,101941.44
2023-01-27T17:14:31.402Z,101937.22
2023-01-27T17:17:01.581Z,101933.72
2023-01-27T17:19:31.765Z,101916.53
2023-01-27T17:21:58.550Z,101910.69
2023-01-27T17:24:29.494Z,101902.78
2023-01-27T17:27:38.708Z,101889.56
2023-01-27T17:30:12.630Z,101883.13
2023-01-27T17:32:41.269Z,101880.50
2023-01-27T17:35:20.951Z,101862.13
2023-01-27T17:37:47.683Z,101834.34
2023-01-27T17:40:23.584Z,101834.13
2023-01-27T17:42:50.444Z,101830.84
2023-01-27T17:45:20.560Z,101817.31
2023-01-27T17:47:47.694Z,101819.75
2023-01-27T17:50:22.155Z,101815.00
2023-01-27T17:52:52.816Z,101811.22
2023-01-27T17:55:25.383Z,101799.25
2023-01-27T17:58:03.796Z,101805.50
2023-01-27T18:00:34.459Z,101796.94
2023-01-27T18:03:07.308Z,101797.59
2023-01-27T18:05:34.290Z,101787.75
2023-01-27T18:08:01.765Z,101795.16
2023-01-27T18:10:34.562Z,101786.50
2023-01-27T18:13:17.719Z,101791.56
2023-01-27T18:16:19.683Z,101788.50
2023-01-27T18:18:46.862Z,101790.50
2023-01-27T18:21:15.777Z,101793.69
2023-01-27T18:23:52.711Z,101782.47
2023-01-27T18:26:30.647Z,101776.34
2023-01-27T18:29:03.956Z,101783.41
2023-01-27T18:31:45.369Z,101781.44
2023-01-27T18:34:12.080Z,101769.38
2023-01-27T18:36:53.286Z,101770.44
2023-01-27T18:39:40.242Z,101762.41
2023-01-27T18:42:16.032Z,101768.56
2023-01-27T18:44:42.990Z,101766.00
2023-01-27T18:47:18.897Z,101765.16
2023-01-27T18:49:49.799Z,101765.38
2023-01-27T18:52:16.532Z,101763.78
2023-01-27T18:54:44.030Z,101754.59
2023-01-27T18:57:11.337Z,101750.16
2023-01-27T18:59:38.296Z,101760.63
2023-01-27T19:02:12.219Z,101759.97
2023-01-27T19:04:38.990Z,101753.22
2023-01-27T19:07:17.563Z,101742.06
2023-01-27T19:09:45.877Z,101740.44
2023-01-27T19:12:12.638Z,101738.75
2023-01-27T19:14:41.503Z,101745.72
2023-01-27T19:17:22.107Z,101746.56
2023-01-27T19:19:49.177Z,101743.09
2023-01-27T19:22:17.893Z,101735.91
2023-01-27T19:24:45.612Z,101738.25
2023-01-27T19:27:14.800Z,101732.44
2023-01-27T19:29:41.994Z,101736.84
2023-01-27T19:32:15.360Z,101723.66
2023-01-27T19:34:42.289Z,101727.69
2023-01-27T19:37:18.305Z,101724.63
2023-01-27T19:39:46.432Z,101726.94
2023-01-27T19:42:14.779Z,101726.22
2023-01-27T19:44:41.616Z,101720.81
2023-01-27T19:47:13.382Z,101719.44
2023-01-27T19:49:40.651Z,101718.50
2023-01-27T19:52:07.615Z,101718.16
2023-01-27T19:54:34.577Z,101718.69
2023-01-27T19:57:01.741Z,101709.84
2023-01-27T19:59:28.582Z,101714.59
2023-01-27T20:01:56.692Z,101712.38
2023-01-27T20:04:23.596Z,101721.97
2023-01-27T20:06:50.302Z,101715.09
2023-01-27T20:09:17.154Z,101718.81
2023-01-27T20:11:44.791Z,101716.38
2023-01-27T20:14:16.912Z,101713.16
2023-01-27T20:16:43.981Z,101730.50
2023-01-27T20:19:15.156Z,101710.34
2023-01-27T20:21:43.112Z,101715.28
2023-01-27T20:24:14.898Z,101718.22
2023-01-27T20:26:41.712Z,101714.84
2023-01-27T20:29:08.487Z,101707.91
2023-01-27T20:31:35.439Z,101717.50
2023-01-27T20:34:02.187Z,101718.97
2023-01-27T20:36:29.040Z,101722.16
2023-01-27T20:38:55.975Z,101722.03
2023-01-27T20:41:24.431Z,101709.16
2023-01-27T20:43:56.095Z,101709.66
2023-01-27T20:46:22.791Z,101715.34
2023-01-27T20:48:49.660Z,101709.13
2023-01-27T20:51:19.595Z,101696.28
2023-01-27T20:53:46.711Z,101705.00
2023-01-27T20:56:18.673Z,101698.38
2023-01-27T20:58:54.347Z,101700.25
2023-01-27T21:01:30.225Z,101696.56
2023-01-27T21:03:57.015Z,101685.44
2023-01-27T21:06:23.747Z,101560.97
2023-01-27T21:08:50.454Z,101560.53
2023-01-27T21:11:18.772Z,101570.75
2023-01-27T21:13:45.857Z,101570.47
2023-01-27T21:16:13.050Z,101567.19
2023-01-27T21:18:44.588Z,101561.16
2023-01-27T21:21:28.443Z,101562.53
2023-01-27T21:24:00.483Z,101555.69
2023-01-27T21:26:27.251Z,101551.03
2023-01-27T21:28:53.978Z,101559.91
2023-01-27T21:31:24.419Z,101559.91
2023-01-27T21:33:51.225Z,101550.59
2023-01-27T21:36:18.471Z,101545.97
2023-01-27T21:38:45.362Z,101549.78
2023-01-27T21:41:31.934Z,101551.78
2023-01-27T21:44:17.203Z,101554.00
2023-01-27T21:46:43.866Z,101547.03
2023-01-27T21:49:10.530Z,101549.38
2023-01-27T21:51:37.194Z,101545.78
2023-01-27T21:54:06.669Z,101545.25
2023-01-27T21:56:33.348Z,101542.28
2023-01-27T21:59:01.059Z,101551.25
2023-01-27T22:01:28.996Z,101537.44
2023-01-27T22:03:56.839Z,101538.19
2023-01-27T22:06:23.433Z,101539.00
2023-01-27T22:08:53.508Z,101534.38
2023-01-27T22:11:20.177Z,101537.84
2023-01-27T22:13:47.271Z,101523.63
2023-01-27T22:16:17.610Z,101525.72
2023-01-27T22:18:44.489Z,101527.63
2023-01-27T22:21:13.349Z,101520.78
2023-01-27T22:23:44.876Z,101519.94
2023-01-27T22:26:16.720Z,101511.31
2023-01-27T22:28:44.139Z,101504.56
2023-01-27T22:31:18.085Z,101500.13
2023-01-27T22:33:44.778Z,101498.97
2023-01-27T22:36:12.997Z,101496.13
2023-01-27T22:38:43.906Z,101496.13
2023-01-27T22:41:21.070Z,101491.16
2023-01-27T22:43:50.503Z,101494.53
2023-01-27T22:46:17.867Z,101497.38
2023-01-27T22:48:49.059Z,101496.53
2023-01-27T22:51:15.931Z,101490.31
2023-01-27T22:53:46.209Z,101488.44
2023-01-27T22:56:20.229Z,101488.31
2023-01-27T22:58:46.869Z,101485.47
2023-01-27T23:01:16.576Z,101490.00
2023-01-27T23:03:50.772Z,101493.38
2023-01-27T23:06:17.519Z,101500.44
2023-01-27T23:08:47.362Z,101493.38
2023-01-27T23:11:19.662Z,101501.59
2023-01-27T23:13:46.291Z,101504.66
2023-01-27T23:16:15.389Z,101495.78
2023-01-27T23:18:50.472Z,101509.50
2023-01-27T23:21:17.113Z,101505.28
2023-01-27T23:23:46.458Z,101512.34
2023-01-27T23:26:24.522Z,101513.72
2023-01-27T23:28:51.235Z,101516.47
2023-01-27T23:31:18.085Z,101512.13
2023-01-27T23:33:55.492Z,101517.19
2023-01-27T23:36:23.207Z,101516.03
2023-01-27T23:38:49.855Z,101520.97
2023-01-27T23:41:21.702Z,101524.06
2023-01-27T23:43:58.149Z,101514.78
2023-01-27T23:46:25.506Z,101516.16
2023-01-27T23:48:55.436Z,101526.56
2023-01-27T23:51:22.941Z,101514.97
2023-01-27T23:53:49.896Z,101528.03
2023-01-27T23:56:21.172Z,101517.81
2023-01-27T23:58:50.062Z,101524.78
